SBOSBO OSR / LKMT
Speedbird OnlineSpeedbird Online OSR / LKMT

Ostrava Leos Janáček Airport
08:50 12.1°C

Location Ostrava, Czech Republic
Latitude: 49.6963005065918
Longitude: 18.111099243164062
Web Airport Website | Wikipedia
Altitude 257 Meter / 844 Feet
Distance 1,281 KM / 796 Miles
from London.
Time Zone UTC +2 hours (Europe/Prague)
Codes IATA: OSR
ICAO: LKMT
Currency £1 equals 0.00
Runways
RunwayLength (m)Surface
043500Concrete
223500Concrete
Radio
TypeDescriptionFrequency
APP118.375
APPOSTRAVA APP119.375
APP128.525
ATISATIS118.055
TWRTWR120.805
Live ATC
METAR LKMT 060630Z 23013KT CAVOK 12/08 Q1026 NOSIG
TAF TAF LKMT 060500Z 0606/0712 23012KT CAVOK TEMPO 0614/0617 9000 -SHRA BKN030 BECMG 0617/0619 02006KT TEMPO 0704/0708 3000 BR BKN004
Weather As Of 06 Oct 2022 08:50
Description Clear sky
Wind 24 km/h from South-West (230°)
Cloud Cover 0%
Precipitation Rain: none, Snow: none
Sunrise 06:54
Sunset 18:16
Rotations During the last 90 days there were
9 flights from LHR
8 flights to LHR


© 2017-2022 Speedbird Online